Time;durP1;ratioP1;P1;durP2;ratioP2;P2;SDS_P1;SDS_P2;PMS_P1;PMS_P2;Temp;Humidity;BMP_temperature;BMP_pressure;BME280_temperature;BME280_humidity;BME280_pressure;Samples;Min_cycle;Max_cycle;Signal;HPM_P1;HPM_P2
2022/02/02 00:01:41;;;;;;;11.63;3.88;;;5.60;1.00;;;;;;4994529;28;20230;-85
2022/02/02 00:04:10;;;;;;;12.98;4.10;;;5.60;1.00;;;;;;4993964;28;20223;-85
2022/02/02 00:06:43;;;;;;;19.05;4.20;;;5.50;1.00;;;;;;4992332;28;20266;-83
2022/02/02 00:09:13;;;;;;;8.30;3.40;;;5.40;1.00;;;;;;5002948;28;20226;-83
2022/02/02 00:14:40;;;;;;;15.07;4.78;;;5.40;1.00;;;;;;4996201;28;20274;-84
2022/02/02 00:17:12;;;;;;;14.77;4.45;;;5.40;1.00;;;;;;4995732;28;20266;-83
2022/02/02 00:19:45;;;;;;;17.92;5.90;;;5.30;1.00;;;;;;5002920;28;20232;-84
2022/02/02 00:22:12;;;;;;;15.85;4.68;;;5.40;1.00;;;;;;5000978;28;20224;-84
2022/02/02 00:24:55;;;;;;;19.13;5.68;;;5.40;1.00;;;;;;4984901;28;20231;-84
2022/02/02 00:27:24;;;;;;;20.95;5.50;;;5.40;1.00;;;;;;4999887;28;20222;-85
2022/02/02 00:29:56;;;;;;;18.25;5.43;;;5.40;1.00;;;;;;5000388;28;20305;-84
2022/02/02 00:32:36;;;;;;;17.48;4.15;;;5.50;1.00;;;;;;4997606;28;20319;-83
2022/02/02 00:35:04;;;;;;;20.38;5.22;;;5.40;1.00;;;;;;5000265;28;20233;-84
2022/02/02 00:37:30;;;;;;;20.77;5.78;;;5.50;1.00;;;;;;4998056;28;20227;-84
2022/02/02 00:39:57;;;;;;;15.82;5.22;;;5.40;1.00;;;;;;5001981;28;20685;-84
2022/02/02 00:42:29;;;;;;;19.20;5.78;;;5.50;1.00;;;;;;4991601;28;20298;-84
2022/02/02 00:44:57;;;;;;;17.75;4.90;;;5.50;1.00;;;;;;4995559;28;20652;-84
2022/02/02 00:47:25;;;;;;;11.95;5.18;;;5.40;1.00;;;;;;5002831;28;20231;-84
2022/02/02 00:49:54;;;;;;;10.43;4.40;;;5.50;1.00;;;;;;4995614;28;20262;-84
2022/02/02 00:52:21;;;;;;;15.73;4.40;;;5.50;1.00;;;;;;4996167;28;20227;-84
2022/02/02 00:54:48;;;;;;;16.98;5.85;;;5.50;1.00;;;;;;4998841;28;20235;-84
2022/02/02 00:57:15;;;;;;;17.15;5.13;;;5.50;1.00;;;;;;4997139;28;20227;-85
2022/02/02 00:59:41;;;;;;;17.60;5.07;;;5.50;1.00;;;;;;4977715;28;20231;-84
2022/02/02 01:02:12;;;;;;;16.42;6.15;;;5.40;1.00;;;;;;4995379;28;21586;-84
2022/02/02 01:04:39;;;;;;;13.68;4.63;;;5.40;1.00;;;;;;4978865;28;20334;-84
2022/02/02 01:07:15;;;;;;;19.33;5.50;;;5.50;1.00;;;;;;4978471;28;20725;-84
2022/02/02 01:09:47;;;;;;;18.10;5.35;;;5.50;1.00;;;;;;5000137;28;20226;-84
2022/02/02 01:15:51;;;;;;;16.35;5.93;;;5.50;1.00;;;;;;4998758;28;20249;-84
2022/02/02 01:18:22;;;;;;;27.02;5.82;;;5.50;1.00;;;;;;4985133;28;20218;-83
2022/02/02 01:20:53;;;;;;;14.18;4.20;;;5.50;1.00;;;;;;5000044;28;20239;-84
2022/02/02 01:28:49;;;;;;;19.23;5.70;;;5.50;1.00;;;;;;5000404;28;20225;-84
2022/02/02 01:31:16;;;;;;;11.75;4.55;;;5.60;1.00;;;;;;4989452;28;21058;-84
2022/02/02 01:33:47;;;;;;;18.55;5.70;;;5.60;1.00;;;;;;4989099;28;20708;-85
2022/02/02 01:36:15;;;;;;;18.45;4.60;;;5.60;1.00;;;;;;4985323;28;20235;-84
2022/02/02 01:38:43;;;;;;;18.50;6.10;;;5.60;1.00;;;;;;4993856;28;20287;-83
2022/02/02 01:41:17;;;;;;;18.13;4.80;;;5.60;1.00;;;;;;5015758;28;20224;-83
2022/02/02 01:43:50;;;;;;;18.15;5.82;;;5.60;1.00;;;;;;5017644;28;20273;-83
2022/02/02 01:46:19;;;;;;;18.55;5.43;;;5.60;1.00;;;;;;5020140;28;20212;-84
2022/02/02 01:48:56;;;;;;;16.58;5.90;;;5.60;1.00;;;;;;5001605;28;20231;-84
2022/02/02 01:51:50;;;;;;;19.33;6.55;;;5.60;1.00;;;;;;5008356;28;20235;-84
2022/02/02 01:54:35;;;;;;;17.85;6.20;;;5.60;1.00;;;;;;4998495;28;20231;-83
2022/02/02 01:57:11;;;;;;;17.73;5.50;;;5.60;1.00;;;;;;4999142;28;20261;-83
2022/02/02 01:59:40;;;;;;;14.85;4.95;;;5.70;1.00;;;;;;4999998;28;20240;-83
2022/02/02 02:02:08;;;;;;;13.27;4.90;;;5.70;1.00;;;;;;4998420;28;20247;-84
2022/02/02 02:04:38;;;;;;;17.70;4.70;;;5.70;1.00;;;;;;4983642;28;20232;-84
2022/02/02 02:07:06;;;;;;;13.57;4.15;;;5.70;1.00;;;;;;4998897;28;20469;-85
2022/02/02 02:09:34;;;;;;;15.35;4.68;;;5.80;1.00;;;;;;4997572;28;21250;-84
2022/02/02 02:12:03;;;;;;;17.08;4.60;;;5.80;1.00;;;;;;4983649;28;20318;-84
2022/02/02 02:14:46;;;;;;;16.48;5.50;;;5.80;1.00;;;;;;4997834;28;20222;-84
2022/02/02 02:17:13;;;;;;;16.23;4.00;;;5.80;1.00;;;;;;4996825;28;20220;-84
2022/02/02 02:19:45;;;;;;;14.55;5.22;;;5.90;1.00;;;;;;4995312;28;20290;-84
2022/02/02 02:22:15;;;;;;;17.13;4.93;;;5.90;1.00;;;;;;4996883;28;20250;-84
2022/02/02 02:24:44;;;;;;;12.13;4.38;;;5.90;1.00;;;;;;4997109;28;20306;-83
2022/02/02 02:27:15;;;;;;;12.88;4.05;;;5.90;1.00;;;;;;4997779;28;20219;-84
2022/02/02 02:29:58;;;;;;;17.13;5.63;;;5.90;1.00;;;;;;4996111;28;21104;-84
2022/02/02 02:32:45;;;;;;;13.68;4.50;;;5.90;1.00;;;;;;4992593;28;20235;-84
2022/02/02 02:38:25;;;;;;;12.15;4.30;;;5.90;1.00;;;;;;4995914;28;21465;-84
2022/02/02 02:57:27;;;;;;;18.95;4.38;;;5.60;1.00;;;;;;4999177;28;20227;-84
2022/02/02 03:00:19;;;;;;;13.27;5.47;;;5.60;1.00;;;;;;4993779;28;20235;-84
2022/02/02 03:13:44;;;;;;;20.88;4.57;;;5.60;1.00;;;;;;4995287;28;20657;-84
2022/02/02 03:30:43;;;;;;;23.80;5.90;;;5.90;1.00;;;;;;4985609;28;20257;-84
2022/02/02 03:50:12;;;;;;;22.42;6.60;;;6.00;1.00;;;;;;5001279;28;20238;-83
2022/02/02 03:55:36;;;;;;;19.13;5.78;;;5.90;1.00;;;;;;5003790;28;20231;-84
2022/02/02 03:58:17;;;;;;;18.45;6.50;;;5.80;1.00;;;;;;5001087;28;20237;-83
2022/02/02 04:00:58;;;;;;;21.65;6.82;;;5.80;1.00;;;;;;4999116;28;20278;-84
2022/02/02 04:03:39;;;;;;;18.95;6.03;;;5.70;1.00;;;;;;4986204;28;20223;-84
2022/02/02 04:06:08;;;;;;;31.60;8.30;;;5.70;1.00;;;;;;4995266;28;20240;-84
2022/02/02 04:08:37;;;;;;;14.50;6.00;;;5.70;1.00;;;;;;4999187;28;20995;-83
2022/02/02 04:11:13;;;;;;;25.65;6.72;;;5.70;1.00;;;;;;4998982;28;24567;-83
2022/02/02 04:14:38;;;;;;;23.67;7.25;;;5.70;1.00;;;;;;4999066;28;20222;-84
2022/02/02 04:39:09;;;;;;;21.02;6.13;;;5.70;1.00;;;;;;4994143;28;20222;-83
2022/02/02 04:53:09;;;;;;;18.63;6.15;;;5.80;1.00;;;;;;4990313;28;20373;-84
2022/02/02 04:55:38;;;;;;;18.48;5.45;;;5.80;1.00;;;;;;4987813;28;20218;-84
2022/02/02 04:58:14;;;;;;;23.83;5.57;;;5.80;1.00;;;;;;4999642;28;20291;-84
2022/02/02 05:03:52;;;;;;;17.55;4.75;;;5.90;1.00;;;;;;5006190;28;20231;-84
2022/02/02 05:06:27;;;;;;;22.50;5.63;;;5.90;1.00;;;;;;5000899;28;20309;-83
2022/02/02 05:09:06;;;;;;;15.45;5.55;;;6.00;1.00;;;;;;4989631;28;20226;-82
2022/02/02 05:17:14;;;;;;;16.27;4.95;;;6.20;1.00;;;;;;4996058;28;20407;-83
2022/02/02 05:44:58;;;;;;;21.83;5.38;;;5.90;1.00;;;;;;4972585;28;20231;-84
2022/02/02 05:52:51;;;;;;;16.60;4.93;;;5.90;1.00;;;;;;4958805;28;20912;-84
2022/02/02 05:55:18;;;;;;;14.70;4.57;;;5.90;1.00;;;;;;5006375;28;20246;-84
2022/02/02 05:57:48;;;;;;;13.68;5.30;;;5.90;1.00;;;;;;5008780;28;20227;-85
2022/02/02 06:00:17;;;;;;;11.55;4.93;;;6.00;1.00;;;;;;5004905;28;20231;-84
2022/02/02 06:02:47;;;;;;;15.13;4.93;;;6.00;1.00;;;;;;4987964;28;20295;-84
2022/02/02 06:09:14;;;;;;;15.63;4.35;;;6.10;1.00;;;;;;5004434;23;20248;-88
2022/02/02 08:19:26;;;;;;;14.48;3.80;;;6.20;1.00;;;;;;5462181;23;20226;-85
2022/02/02 08:26:15;;;;;;;;;;;;;;;;;;;;;
2022/02/02 09:31:35;;;;;;;6.43;2.75;;;5.60;1.00;;;;;;1422209;26;20244;-82
2022/02/02 09:45:25;;;;;;;14.32;1.92;;;6.30;1.00;;;;;;4908972;28;20333;-81
2022/02/02 09:48:00;;;;;;;7.70;2.20;;;6.60;1.00;;;;;;4918525;28;20230;-83
2022/02/02 09:50:35;;;;;;;12.00;2.92;;;7.10;1.00;;;;;;4921172;28;20328;-85
2022/02/02 09:53:04;;;;;;;5.05;1.75;;;7.20;1.00;;;;;;4922584;28;20304;-85
2022/02/02 09:55:53;;;;;;;7.28;2.67;;;7.00;1.00;;;;;;4920922;28;20281;-86
2022/02/02 09:58:56;;;;;;;11.20;2.08;;;7.10;1.00;;;;;;4909351;28;20365;-86
2022/02/02 10:01:42;;;;;;;8.38;2.65;;;7.20;1.00;;;;;;4923489;28;20383;-89
2022/02/02 10:04:31;;;;;;;5.32;2.38;;;7.20;1.00;;;;;;4929121;28;20229;-88
2022/02/02 10:07:26;;;;;;;7.22;2.05;;;7.00;1.00;;;;;;4920176;28;20241;-86
2022/02/02 10:10:23;;;;;;;8.85;3.28;;;6.60;1.00;;;;;;4934574;28;20248;-84
2022/02/02 10:13:06;;;;;;;13.10;2.75;;;6.50;1.00;;;;;;4932721;28;20693;-86
2022/02/02 10:15:35;;;;;;;6.88;2.40;;;6.50;1.00;;;;;;4929166;28;20414;-86
2022/02/02 10:18:06;;;;;;;9.38;5.72;;;6.60;1.00;;;;;;4915504;28;20230;-85
2022/02/02 10:20:36;;;;;;;7.38;1.92;;;6.90;1.00;;;;;;4912024;28;20987;-85
2022/02/02 10:23:05;;;;;;;9.02;2.75;;;7.30;1.00;;;;;;4934134;28;20229;-85
2022/02/02 10:25:44;;;;;;;5.90;2.40;;;7.70;1.00;;;;;;4941742;28;20222;-89
2022/02/02 10:28:16;;;;;;;6.88;2.08;;;7.60;1.00;;;;;;4925740;28;20233;-85
2022/02/02 10:30:49;;;;;;;7.43;2.63;;;7.40;1.00;;;;;;4914117;28;20321;-85
2022/02/02 10:33:40;;;;;;;8.07;2.50;;;7.20;1.00;;;;;;4930971;28;20289;-85
2022/02/02 10:42:50;;;;;;;5.28;2.60;;;6.90;1.00;;;;;;4915967;28;20256;-84
2022/02/02 10:45:21;;;;;;;7.53;3.45;;;6.90;1.00;;;;;;4930720;28;20234;-84
2022/02/02 10:47:57;;;;;;;9.20;4.40;;;6.80;1.00;;;;;;4903090;28;20229;-85
2022/02/02 10:50:38;;;;;;;8.90;2.78;;;6.90;1.00;;;;;;4929283;28;20226;-86
2022/02/02 10:53:28;;;;;;;7.72;3.08;;;6.90;1.00;;;;;;4933024;28;20235;-87
2022/02/02 10:56:17;;;;;;;8.73;3.10;;;6.90;1.00;;;;;;4929305;28;20218;-83
2022/02/02 10:59:14;;;;;;;7.22;2.70;;;6.90;1.00;;;;;;4921623;28;20346;-82
2022/02/02 11:01:47;;;;;;;7.63;2.95;;;6.80;1.00;;;;;;4926075;28;20282;-85
2022/02/02 11:07:00;;;;;;;7.78;3.10;;;6.90;1.00;;;;;;4935390;28;20246;-83
2022/02/02 11:09:30;;;;;;;8.27;2.30;;;6.80;1.00;;;;;;4944101;28;20229;-84
2022/02/02 11:11:58;;;;;;;7.05;2.67;;;6.80;1.00;;;;;;4937688;28;20418;-84
2022/02/02 11:14:35;;;;;;;9.00;2.92;;;6.70;1.00;;;;;;4936523;28;20223;-84
2022/02/02 11:17:10;;;;;;;6.47;2.58;;;6.70;1.00;;;;;;4929181;28;20645;-84
2022/02/02 11:19:39;;;;;;;6.40;2.22;;;6.80;1.00;;;;;;4936899;28;20346;-84
2022/02/02 11:22:32;;;;;;;11.02;3.35;;;6.80;1.00;;;;;;4935596;28;20705;-82
2022/02/02 11:25:34;;;;;;;9.23;2.40;;;6.90;1.00;;;;;;4929731;28;20554;-82
2022/02/02 11:28:04;;;;;;;11.43;2.70;;;6.90;1.00;;;;;;4927530;28;20337;-83
2022/02/02 11:30:43;;;;;;;9.57;2.55;;;7.00;1.00;;;;;;4932131;28;20226;-84
2022/02/02 11:33:26;;;;;;;10.70;3.60;;;7.10;1.00;;;;;;4928816;28;20245;-85
2022/02/02 11:35:58;;;;;;;8.07;3.80;;;7.30;1.00;;;;;;4932760;28;20233;-83
2022/02/02 11:38:40;;;;;;;8.02;2.95;;;7.20;1.00;;;;;;4936759;28;20233;-86
2022/02/02 11:41:57;;;;;;;8.02;3.60;;;7.20;1.00;;;;;;4939163;28;20229;-86
2022/02/02 11:44:43;;;;;;;7.13;2.70;;;7.20;1.00;;;;;;4918982;28;20277;-85
2022/02/02 11:47:22;;;;;;;8.32;2.45;;;7.20;1.00;;;;;;4942243;28;20221;-85
2022/02/02 11:49:53;;;;;;;7.15;3.33;;;7.10;1.00;;;;;;4924364;28;20222;-85
2022/02/02 11:52:43;;;;;;;8.45;2.80;;;7.10;1.00;;;;;;4941115;28;20222;-85
2022/02/02 11:55:43;;;;;;;5.90;2.45;;;7.10;1.00;;;;;;4934513;28;20246;-86
2022/02/02 11:58:17;;;;;;;7.65;2.70;;;7.10;1.00;;;;;;4930924;28;20230;-85
2022/02/02 12:01:00;;;;;;;6.60;2.33;;;7.10;1.00;;;;;;4937453;28;20939;-85
2022/02/02 12:03:45;;;;;;;7.05;2.22;;;7.10;1.00;;;;;;4916192;29;20230;-87
2022/02/02 12:06:27;;;;;;;10.60;2.90;;;7.00;1.00;;;;;;4932983;28;20230;-84
2022/02/02 12:09:04;;;;;;;6.57;2.35;;;7.00;1.00;;;;;;4928933;28;20386;-85
2022/02/02 12:48:59;;;;;;;6.70;1.48;;;7.80;1.00;;;;;;4930066;28;20239;-84
2022/02/02 12:57:09;;;;;;;3.95;1.33;;;7.80;1.00;;;;;;4945177;28;20222;-85
2022/02/02 13:00:05;;;;;;;3.92;1.63;;;7.60;1.00;;;;;;4931616;28;20450;-85
2022/02/02 13:02:36;;;;;;;3.65;1.88;;;7.50;1.00;;;;;;4939252;28;20235;-84
2022/02/02 13:05:06;;;;;;;6.55;1.30;;;7.30;1.00;;;;;;4936515;28;21131;-85
2022/02/02 13:07:33;;;;;;;5.53;1.60;;;7.20;1.00;;;;;;4935162;28;20226;-83
2022/02/02 13:10:02;;;;;;;4.63;1.88;;;7.10;1.00;;;;;;4926621;28;21548;-85
2022/02/02 13:12:35;;;;;;;4.70;1.90;;;7.20;1.00;;;;;;4937729;28;20234;-85
2022/02/02 13:18:08;;;;;;;5.82;1.65;;;7.20;1.00;;;;;;4916805;28;20229;-84
2022/02/02 13:20:52;;;;;;;8.15;1.50;;;7.20;1.00;;;;;;4930034;28;20313;-84
2022/02/02 13:23:26;;;;;;;5.97;1.70;;;7.20;1.00;;;;;;4931043;28;20281;-86
2022/02/02 13:25:55;;;;;;;5.22;1.90;;;7.30;1.00;;;;;;4912552;28;20230;-84
2022/02/02 13:28:59;;;;;;;6.65;1.52;;;7.50;1.00;;;;;;4932459;28;20212;-84
2022/02/02 13:31:35;;;;;;;3.85;1.30;;;7.50;1.00;;;;;;4885714;29;20223;-85
2022/02/02 13:34:16;;;;;;;4.55;1.80;;;7.70;1.00;;;;;;4920031;28;20258;-84
2022/02/02 13:37:05;;;;;;;3.67;1.42;;;8.50;1.00;;;;;;4926452;28;20452;-85
2022/02/02 13:42:47;;;;;;;5.07;1.30;;;10.10;1.00;;;;;;4932642;28;20226;-85
2022/02/02 13:48:53;;;;;;;3.63;1.80;;;12.90;1.00;;;;;;4927916;28;22353;-85
2022/02/02 13:54:30;;;;;;;4.07;1.60;;;11.40;1.00;;;;;;4930321;28;20537;-86
2022/02/02 13:57:30;;;;;;;4.10;1.60;;;10.20;1.00;;;;;;4926047;28;20464;-84
2022/02/02 14:00:26;;;;;;;3.97;1.60;;;9.30;1.00;;;;;;4912954;28;21436;-84
2022/02/02 14:11:44;;;;;;;4.90;1.48;;;7.50;1.00;;;;;;4913240;28;20329;-85
2022/02/02 14:33:29;;;;;;;3.53;0.88;;;6.80;1.00;;;;;;4929414;28;20721;-84
2022/02/02 14:35:59;;;;;;;4.72;1.05;;;6.80;1.00;;;;;;4920847;28;20270;-84
2022/02/02 14:38:27;;;;;;;3.88;1.60;;;6.80;1.00;;;;;;4911774;28;20231;-84
2022/02/02 14:41:07;;;;;;;11.80;2.20;;;6.90;1.00;;;;;;4929948;28;20218;-85
2022/02/02 14:43:40;;;;;;;2.75;1.10;;;6.90;1.00;;;;;;4920883;28;20244;-85
2022/02/02 14:46:10;;;;;;;3.25;1.73;;;6.90;1.00;;;;;;4933353;28;20229;-84
2022/02/02 14:48:44;;;;;;;2.47;1.35;;;6.90;1.00;;;;;;4940352;28;20226;-84
2022/02/02 14:51:20;;;;;;;2.63;0.90;;;6.80;1.00;;;;;;4936895;28;20270;-85
2022/02/02 14:53:57;;;;;;;3.95;1.33;;;6.80;1.00;;;;;;4929934;28;20249;-83
2022/02/02 14:56:52;;;;;;;3.15;1.05;;;6.80;1.00;;;;;;4913605;28;20355;-83
2022/02/02 15:29:56;;;;;;;2.33;1.17;;;6.70;1.00;;;;;;4930356;28;20222;-84
2022/02/02 15:32:26;;;;;;;3.95;1.40;;;6.70;1.00;;;;;;4931491;28;20803;-83
2022/02/02 15:34:57;;;;;;;4.93;1.90;;;6.50;1.00;;;;;;4933331;28;20289;-83
2022/02/02 15:37:28;;;;;;;5.55;1.98;;;6.50;1.00;;;;;;4934570;28;20729;-84
2022/02/02 15:40:07;;;;;;;3.67;1.40;;;6.30;1.00;;;;;;4932788;28;20241;-85
2022/02/02 15:42:50;;;;;;;5.00;1.52;;;6.10;1.00;;;;;;4937955;28;20243;-83
2022/02/02 15:59:34;;;;;;;6.75;2.13;;;5.40;1.00;;;;;;4908348;28;20253;-86
2022/02/02 16:02:10;;;;;;;7.68;2.50;;;5.40;1.00;;;;;;4930173;28;20225;-86
2022/02/02 16:04:39;;;;;;;4.57;3.17;;;5.30;1.00;;;;;;4928192;28;20225;-83
2022/02/02 16:07:10;;;;;;;4.50;2.15;;;5.20;1.00;;;;;;4926390;28;20324;-85
2022/02/02 16:09:46;;;;;;;6.65;1.95;;;5.20;1.00;;;;;;4922968;28;20874;-82
2022/02/02 16:12:18;;;;;;;5.03;2.75;;;5.10;1.00;;;;;;4929338;28;20280;-84
2022/02/02 16:14:48;;;;;;;9.25;2.50;;;5.10;1.00;;;;;;4929959;28;20232;-84
2022/02/02 16:17:39;;;;;;;4.28;1.70;;;5.00;1.00;;;;;;4917064;28;20221;-83
2022/02/02 16:34:40;;;;;;;7.45;2.85;;;5.00;1.00;;;;;;4929746;28;20306;-83
2022/02/02 16:37:04;;;;;;;5.47;2.38;;;5.00;1.00;;;;;;4928715;28;20274;-83
2022/02/02 16:39:35;;;;;;;7.45;1.95;;;4.90;1.00;;;;;;4937273;28;20302;-81
2022/02/02 16:44:46;;;;;;;6.22;2.45;;;4.90;1.00;;;;;;4926455;28;20253;-80
2022/02/02 16:47:13;;;;;;;6.82;2.65;;;4.90;1.00;;;;;;4923374;28;20345;-81
2022/02/02 16:49:40;;;;;;;7.85;2.85;;;5.00;1.00;;;;;;4919678;28;20232;-81
2022/02/02 16:52:09;;;;;;;5.15;2.53;;;5.00;1.00;;;;;;4925787;28;20240;-82
2022/02/02 16:54:40;;;;;;;5.40;2.40;;;5.00;1.00;;;;;;4930699;28;20243;-81
2022/02/02 16:57:25;;;;;;;8.00;2.50;;;5.00;1.00;;;;;;4938792;28;20240;-80
2022/02/02 17:30:26;;;;;;;11.68;3.10;;;4.60;1.00;;;;;;4932393;28;20237;-80
2022/02/02 17:32:55;;;;;;;8.23;3.55;;;4.60;1.00;;;;;;4925301;28;20226;-81
2022/02/02 17:38:13;;;;;;;4.90;2.42;;;4.60;1.00;;;;;;4924600;28;20222;-82
2022/02/02 17:40:58;;;;;;;10.27;3.97;;;4.70;1.00;;;;;;4923753;28;20288;-83
2022/02/02 17:43:51;;;;;;;9.18;3.08;;;4.70;1.00;;;;;;4921975;28;20225;-80
2022/02/02 18:19:53;;;;;;;12.88;5.35;;;5.30;1.00;;;;;;5160091;27;20615;-79
2022/02/02 18:22:24;;;;;;;8.30;2.95;;;5.30;1.00;;;;;;5178668;27;21195;-80
2022/02/02 18:25:01;;;;;;;11.68;3.13;;;5.30;1.00;;;;;;5173565;27;20221;-81
2022/02/02 18:27:36;;;;;;;9.15;4.68;;;5.30;1.00;;;;;;5174710;27;20208;-82
2022/02/02 18:30:17;;;;;;;8.45;3.15;;;5.30;1.00;;;;;;5176512;27;20221;-81
2022/02/02 18:32:56;;;;;;;8.52;3.80;;;5.20;1.00;;;;;;5182766;27;20223;-81
2022/02/02 18:35:30;;;;;;;8.07;2.67;;;5.00;1.00;;;;;;5169093;27;20232;-81
2022/02/02 18:46:25;;;;;;;9.57;2.95;;;4.70;1.00;;;;;;5175587;27;20221;-81
2022/02/02 18:48:59;;;;;;;9.90;3.00;;;4.70;1.00;;;;;;5172653;27;20232;-81
2022/02/02 18:52:09;;;;;;;9.57;3.00;;;4.70;1.00;;;;;;5173961;27;20373;-81
2022/02/02 18:54:46;;;;;;;8.52;2.88;;;4.70;1.00;;;;;;5174056;27;20275;-79
2022/02/02 18:57:26;;;;;;;5.20;2.97;;;4.70;1.00;;;;;;5173550;27;20216;-80
2022/02/02 19:00:11;;;;;;;6.85;3.10;;;4.70;1.00;;;;;;5172478;27;21011;-81
2022/02/02 19:03:12;;;;;;;14.90;4.40;;;4.70;1.00;;;;;;5180398;27;20221;-80
2022/02/02 19:53:14;;;;;;;5.70;3.10;;;4.30;1.00;;;;;;5156499;27;20284;-79
2022/02/02 19:55:51;;;;;;;8.45;2.75;;;4.30;1.00;;;;;;5155553;27;20222;-80
2022/02/02 20:03:58;;;;;;;5.55;2.45;;;4.40;1.00;;;;;;5150908;27;20241;-80
2022/02/02 20:06:39;;;;;;;11.38;5.45;;;4.40;1.00;;;;;;5130791;27;20240;-80
2022/02/02 20:09:25;;;;;;;6.75;2.60;;;4.30;1.00;;;;;;5161578;27;20285;-81
2022/02/02 20:11:52;;;;;;;12.55;4.55;;;4.30;1.00;;;;;;5141584;27;20287;-81
2022/02/02 20:14:20;;;;;;;8.95;3.10;;;4.30;1.00;;;;;;5169309;27;20230;-81
2022/02/02 20:16:47;;;;;;;10.10;2.75;;;4.30;1.00;;;;;;5165518;27;20286;-81
2022/02/02 20:19:14;;;;;;;5.82;2.50;;;4.40;1.00;;;;;;5149715;27;21192;-81
2022/02/02 20:21:50;;;;;;;6.78;2.42;;;4.50;1.00;;;;;;5143501;27;20277;-80
2022/02/02 20:24:21;;;;;;;10.05;2.60;;;4.50;1.00;;;;;;5162007;27;20218;-81
2022/02/02 20:26:49;;;;;;;7.90;2.95;;;4.50;1.00;;;;;;5166043;27;20278;-81
2022/02/02 20:29:15;;;;;;;13.95;4.05;;;4.50;1.00;;;;;;5166313;27;20228;-83
2022/02/02 20:31:44;;;;;;;5.68;2.20;;;4.50;1.00;;;;;;5158701;27;20257;-84
2022/02/02 20:34:11;;;;;;;6.72;2.65;;;4.50;1.00;;;;;;5153111;27;20213;-84
2022/02/02 20:36:39;;;;;;;7.40;2.30;;;4.60;1.00;;;;;;5154904;27;20239;-84
2022/02/02 20:39:16;;;;;;;7.93;3.17;;;4.50;1.00;;;;;;5173888;27;20225;-85
2022/02/02 20:41:43;;;;;;;6.93;2.70;;;4.50;1.00;;;;;;5156328;27;20223;-84
2022/02/02 20:44:18;;;;;;;6.75;2.35;;;4.50;1.00;;;;;;5158478;27;20226;-85
2022/02/02 20:47:15;;;;;;;6.20;2.20;;;4.40;1.00;;;;;;5149671;27;20221;-81
2022/02/02 21:01:35;;;;;;;6.10;2.47;;;4.10;1.00;;;;;;5113104;27;20217;-84
2022/02/02 21:04:21;;;;;;;6.97;2.45;;;4.10;1.00;;;;;;5156779;27;20213;-84
2022/02/02 21:07:03;;;;;;;7.07;2.45;;;4.00;1.00;;;;;;5149059;27;20218;-84
2022/02/02 21:09:52;;;;;;;7.55;2.35;;;4.00;1.00;;;;;;5135990;27;20731;-84
2022/02/02 21:15:13;;;;;;;9.05;2.30;;;4.10;1.00;;;;;;5151752;27;20217;-84
2022/02/02 21:17:41;;;;;;;7.55;2.40;;;4.10;1.00;;;;;;5153004;27;20247;-84
2022/02/02 21:20:18;;;;;;;7.90;3.03;;;4.10;1.00;;;;;;5136422;27;20238;-83
2022/02/02 21:22:51;;;;;;;9.40;2.42;;;4.10;1.00;;;;;;5152291;27;20793;-83
2022/02/02 21:25:36;;;;;;;7.03;1.83;;;4.10;1.00;;;;;;5154429;27;20419;-82
2022/02/02 21:28:04;;;;;;;6.32;2.40;;;4.10;1.00;;;;;;5151523;27;20227;-80
2022/02/02 21:30:32;;;;;;;10.10;2.35;;;4.00;1.00;;;;;;5154579;27;20274;-82
2022/02/02 21:32:59;;;;;;;6.90;2.13;;;4.00;1.00;;;;;;5154088;27;20216;-82
2022/02/02 21:35:27;;;;;;;6.68;2.33;;;3.90;1.00;;;;;;5153884;27;20222;-81
2022/02/02 21:38:02;;;;;;;5.40;2.53;;;3.80;1.00;;;;;;5151285;27;20229;-84
2022/02/02 21:40:30;;;;;;;6.47;3.05;;;3.80;1.00;;;;;;5150070;27;20233;-84
2022/02/02 21:42:59;;;;;;;7.15;2.28;;;3.70;1.00;;;;;;5169760;27;20240;-83
2022/02/02 21:45:31;;;;;;;5.13;2.88;;;3.70;1.00;;;;;;5182140;27;20226;-83
2022/02/02 21:48:00;;;;;;;9.30;2.30;;;3.70;1.00;;;;;;5200452;27;20224;-84
2022/02/02 21:50:41;;;;;;;6.35;2.05;;;3.60;1.00;;;;;;5152113;27;20228;-81
2022/02/02 21:53:11;;;;;;;3.92;2.08;;;3.60;1.00;;;;;;5152656;27;20218;-83
2022/02/02 21:55:39;;;;;;;9.50;2.70;;;3.60;1.00;;;;;;5172058;27;20278;-83
2022/02/02 21:58:07;;;;;;;7.93;2.50;;;3.60;1.00;;;;;;5154210;27;20225;-82
2022/02/02 22:00:37;;;;;;;5.55;2.30;;;3.60;1.00;;;;;;5173018;27;20218;-83
2022/02/02 22:03:04;;;;;;;7.88;2.47;;;3.60;1.00;;;;;;5191025;27;20656;-84
2022/02/02 22:05:33;;;;;;;8.43;2.72;;;3.50;1.00;;;;;;5191338;27;20389;-84
2022/02/02 22:08:00;;;;;;;7.53;2.70;;;3.50;1.00;;;;;;5158823;27;20220;-84
2022/02/02 22:10:27;;;;;;;8.10;2.60;;;3.50;1.00;;;;;;5167627;27;20289;-83
2022/02/02 22:12:54;;;;;;;7.68;2.78;;;3.50;1.00;;;;;;5172103;27;20220;-84
2022/02/02 22:15:26;;;;;;;6.85;2.75;;;3.50;1.00;;;;;;5179067;27;20214;-82
2022/02/02 22:17:53;;;;;;;5.00;2.20;;;3.40;1.00;;;;;;5147736;27;20226;-82
2022/02/02 22:20:22;;;;;;;10.75;3.47;;;3.40;1.00;;;;;;5165981;27;20234;-82
2022/02/02 22:22:51;;;;;;;11.27;3.35;;;3.50;1.00;;;;;;5160922;27;21048;-82
2022/02/02 22:25:21;;;;;;;5.10;2.10;;;3.40;1.00;;;;;;5162885;27;20221;-83
2022/02/02 22:27:48;;;;;;;6.25;2.40;;;3.40;1.00;;;;;;5166247;27;20318;-83
2022/02/02 22:30:15;;;;;;;7.75;2.50;;;3.40;1.00;;;;;;5144568;27;20958;-83
2022/02/02 22:32:42;;;;;;;6.60;2.75;;;3.30;1.00;;;;;;5142418;27;21146;-83
2022/02/02 22:35:10;;;;;;;5.78;2.33;;;3.40;1.00;;;;;;5160772;27;20233;-84
2022/02/02 22:37:40;;;;;;;10.52;2.28;;;3.30;1.00;;;;;;5169038;27;20214;-83
2022/02/02 22:40:10;;;;;;;7.07;2.80;;;3.30;1.00;;;;;;5149330;27;20244;-83
2022/02/02 22:42:38;;;;;;;11.25;2.58;;;3.30;1.00;;;;;;5183271;27;20970;-84
2022/02/02 22:45:08;;;;;;;7.10;2.55;;;3.30;1.00;;;;;;5165032;27;20671;-84
2022/02/02 22:47:36;;;;;;;8.50;3.05;;;3.30;1.00;;;;;;5161413;27;20217;-84
2022/02/02 22:50:06;;;;;;;8.73;3.33;;;3.30;1.00;;;;;;5168986;27;20221;-83
2022/02/02 22:52:34;;;;;;;8.32;2.97;;;3.30;1.00;;;;;;5172731;27;20278;-83
2022/02/02 22:55:01;;;;;;;9.57;3.38;;;3.30;1.00;;;;;;5194689;27;20240;-82
2022/02/02 22:57:39;;;;;;;9.68;2.83;;;3.30;1.00;;;;;;5165686;27;20348;-83
2022/02/02 23:00:15;;;;;;;10.93;2.97;;;3.20;1.00;;;;;;5162979;27;20236;-84
2022/02/02 23:02:53;;;;;;;10.35;3.03;;;3.20;1.00;;;;;;5176835;27;20225;-83
2022/02/02 23:05:30;;;;;;;6.32;2.30;;;3.20;1.00;;;;;;5144726;27;20328;-84
2022/02/02 23:08:00;;;;;;;7.95;3.03;;;3.10;1.00;;;;;;5155534;27;20218;-83
2022/02/02 23:10:28;;;;;;;8.70;2.55;;;3.10;1.00;;;;;;5180709;27;20236;-85
2022/02/02 23:12:56;;;;;;;13.82;4.85;;;3.10;1.00;;;;;;5161672;27;20221;-83
2022/02/02 23:15:30;;;;;;;7.07;2.40;;;3.00;1.00;;;;;;5139029;27;20510;-85
2022/02/02 23:18:04;;;;;;;4.53;2.35;;;3.00;1.00;;;;;;5155540;27;20222;-82
2022/02/02 23:20:34;;;;;;;10.55;3.10;;;3.10;1.00;;;;;;5174387;27;20256;-81
2022/02/02 23:23:05;;;;;;;7.30;2.92;;;3.10;1.00;;;;;;5145173;27;20225;-82
2022/02/02 23:25:35;;;;;;;7.40;3.22;;;3.10;1.00;;;;;;5166126;27;20228;-81
2022/02/02 23:28:04;;;;;;;9.02;3.10;;;3.10;1.00;;;;;;5169101;27;20221;-81
2022/02/02 23:30:32;;;;;;;12.43;3.63;;;3.00;1.00;;;;;;5146422;27;20317;-83
2022/02/02 23:33:01;;;;;;;12.32;2.90;;;3.00;1.00;;;;;;5163938;27;21434;-82
2022/02/02 23:35:29;;;;;;;8.55;3.03;;;3.00;1.00;;;;;;5151376;27;20217;-82
2022/02/02 23:37:59;;;;;;;5.65;2.75;;;3.00;1.00;;;;;;5160952;27;20218;-82
2022/02/02 23:40:32;;;;;;;8.30;3.17;;;3.00;1.00;;;;;;5168939;27;20748;-82
2022/02/02 23:43:01;;;;;;;14.45;3.78;;;3.00;1.00;;;;;;5168114;27;20292;-82
2022/02/02 23:45:32;;;;;;;8.85;2.75;;;2.90;1.00;;;;;;5163858;27;20228;-81
2022/02/02 23:48:04;;;;;;;7.25;2.80;;;2.90;1.00;;;;;;5180361;27;20248;-81
2022/02/02 23:50:32;;;;;;;9.43;3.05;;;2.90;1.00;;;;;;5165031;27;20223;-82
2022/02/02 23:53:08;;;;;;;8.15;3.35;;;2.90;1.00;;;;;;5167895;27;20218;-81
2022/02/02 23:55:39;;;;;;;7.50;2.90;;;2.90;1.00;;;;;;5165020;27;20221;-82
2022/02/02 23:58:12;;;;;;;10.70;3.20;;;2.90;1.00;;;;;;5168409;27;20243;-82
